createdAt,value
2023-02-21T00:02:03.021Z,2.50
2023-02-21T00:04:48.631Z,2.50
2023-02-21T00:07:34.303Z,2.40
2023-02-21T00:10:19.998Z,2.30
2023-02-21T00:13:06.065Z,2.20
2023-02-21T00:15:51.756Z,2.20
2023-02-21T00:18:37.228Z,2.10
2023-02-21T00:21:23.379Z,2.10
2023-02-21T00:24:08.789Z,2.10
2023-02-21T00:26:54.410Z,2.00
2023-02-21T00:29:40.118Z,1.90
2023-02-21T00:32:25.751Z,1.80
2023-02-21T00:35:12.318Z,1.80
2023-02-21T00:37:57.957Z,1.80
2023-02-21T00:40:43.350Z,1.80
2023-02-21T00:43:28.641Z,1.80
2023-02-21T00:46:14.291Z,1.80
2023-02-21T00:48:59.970Z,1.80
2023-02-21T00:51:45.327Z,1.80
2023-02-21T00:54:30.924Z,1.70
2023-02-21T00:57:16.677Z,1.70
2023-02-21T01:00:02.346Z,1.60
2023-02-21T01:02:47.709Z,1.50
2023-02-21T01:05:33.214Z,1.60
2023-02-21T01:08:18.588Z,1.60
2023-02-21T01:11:04.065Z,1.60
2023-02-21T01:13:49.493Z,1.60
2023-02-21T01:16:35.037Z,1.60
2023-02-21T01:19:20.622Z,1.60
2023-02-21T01:22:06.413Z,1.50
2023-02-21T01:24:52.074Z,1.50
2023-02-21T01:27:37.492Z,1.50
2023-02-21T01:30:23.568Z,1.40
2023-02-21T01:33:08.886Z,1.30
2023-02-21T01:35:54.193Z,1.30
2023-02-21T01:38:39.682Z,1.20
2023-02-21T01:41:25.345Z,1.20
2023-02-21T01:44:45.699Z,1.20
2023-02-21T01:47:32.527Z,1.30
2023-02-21T01:50:22.928Z,1.30
2023-02-21T01:53:08.675Z,1.30
2023-02-21T01:55:57.985Z,1.30
2023-02-21T01:58:45.414Z,1.30
2023-02-21T02:01:39.263Z,1.40
2023-02-21T02:04:24.944Z,1.40
2023-02-21T02:07:10.861Z,1.40
2023-02-21T02:09:56.196Z,1.40
2023-02-21T02:12:51.265Z,1.50
2023-02-21T02:15:43.785Z,1.50
2023-02-21T02:18:45.953Z,1.50
2023-02-21T02:21:50.498Z,1.50
2023-02-21T02:24:28.412Z,1.50
2023-02-21T02:27:33.096Z,1.60
2023-02-21T02:30:24.409Z,1.60
2023-02-21T02:33:10.092Z,1.70
2023-02-21T02:35:52.341Z,1.60
2023-02-21T02:38:25.349Z,1.60
2023-02-21T02:40:57.953Z,1.60
2023-02-21T02:43:57.226Z,1.50
2023-02-21T02:46:28.725Z,1.50
2023-02-21T02:49:13.151Z,1.50
2023-02-21T02:51:40.391Z,1.50
2023-02-21T02:54:07.281Z,1.40
2023-02-21T02:56:36.972Z,1.40
2023-02-21T02:59:11.093Z,1.40
2023-02-21T03:01:49.749Z,1.40
2023-02-21T03:04:45.095Z,1.40
2023-02-21T03:07:23.709Z,1.30
2023-02-21T03:10:17.896Z,1.20
2023-02-21T03:13:15.507Z,1.20
2023-02-21T03:15:51.307Z,1.10
2023-02-21T03:18:18.152Z,1.10
2023-02-21T03:20:47.168Z,1.20
2023-02-21T03:23:16.052Z,1.10
2023-02-21T03:25:45.046Z,1.20
2023-02-21T03:28:12.692Z,1.10
2023-02-21T03:30:42.546Z,1.10
2023-02-21T03:33:09.473Z,1.10
2023-02-21T03:35:36.910Z,1.00
2023-02-21T03:38:04.723Z,1.00
2023-02-21T03:40:33.916Z,1.00
2023-02-21T03:43:03.386Z,1.00
2023-02-21T03:45:30.382Z,1.00
2023-02-21T03:47:57.416Z,1.00
2023-02-21T03:50:24.401Z,0.90
2023-02-21T03:52:51.662Z,0.90
2023-02-21T03:55:20.238Z,0.90
2023-02-21T03:57:47.527Z,0.80
2023-02-21T04:00:15.345Z,0.90
2023-02-21T04:02:42.876Z,0.80
2023-02-21T04:05:10.159Z,0.80
2023-02-21T04:07:37.242Z,0.90
2023-02-21T04:10:04.295Z,0.80
2023-02-21T04:12:31.305Z,0.90
2023-02-21T04:14:58.759Z,1.00
2023-02-21T04:17:26.003Z,0.90
2023-02-21T04:19:52.900Z,0.90
2023-02-21T04:22:20.018Z,0.90
2023-02-21T04:24:48.238Z,0.80
2023-02-21T04:27:16.121Z,0.90
2023-02-21T04:29:43.179Z,0.90
2023-02-21T04:32:11.583Z,0.90
2023-02-21T04:34:38.730Z,0.80
2023-02-21T04:37:05.896Z,0.90
2023-02-21T04:39:33.134Z,0.90
2023-02-21T04:42:00.198Z,0.90
2023-02-21T04:44:27.108Z,1.00
2023-02-21T04:46:54.134Z,0.90
2023-02-21T04:49:21.065Z,1.00
2023-02-21T04:51:48.125Z,1.00
2023-02-21T04:54:15.168Z,1.00
2023-02-21T04:56:42.222Z,1.00
2023-02-21T04:59:09.261Z,1.10
2023-02-21T05:01:36.328Z,1.10
2023-02-21T05:04:03.774Z,1.10
2023-02-21T05:06:31.906Z,1.10
2023-02-21T05:08:59.830Z,1.10
2023-02-21T05:11:27.930Z,1.10
2023-02-21T05:13:54.986Z,1.20
2023-02-21T05:16:22.080Z,1.20
2023-02-21T05:18:50.033Z,1.10
2023-02-21T05:21:17.987Z,1.10
2023-02-21T05:23:56.145Z,1.00
2023-02-21T05:26:36.169Z,0.90
2023-02-21T05:29:04.304Z,0.90
2023-02-21T05:31:31.476Z,0.90
2023-02-21T05:33:58.751Z,0.90
2023-02-21T05:36:25.941Z,1.10
2023-02-21T05:38:55.605Z,1.10
2023-02-21T05:41:23.354Z,1.10
2023-02-21T05:43:50.445Z,1.00
2023-02-21T05:46:26.697Z,1.00
2023-02-21T05:48:54.491Z,1.00
2023-02-21T05:51:21.827Z,1.00
2023-02-21T05:53:49.125Z,0.90
2023-02-21T05:56:17.480Z,1.00
2023-02-21T05:58:44.455Z,1.00
2023-02-21T06:01:12.578Z,1.00
2023-02-21T06:03:39.797Z,1.00
2023-02-21T06:06:06.802Z,1.10
2023-02-21T06:08:41.747Z,1.10
2023-02-21T06:11:08.693Z,0.90
2023-02-21T06:13:35.716Z,0.90
2023-02-21T06:16:02.761Z,1.00
2023-02-21T06:18:29.705Z,0.90
2023-02-21T06:20:56.664Z,0.90
2023-02-21T06:23:23.587Z,0.90
2023-02-21T06:25:50.510Z,1.00
2023-02-21T06:28:17.944Z,0.90
2023-02-21T06:30:45.388Z,1.00
2023-02-21T06:33:12.322Z,0.90
2023-02-21T06:35:39.326Z,0.90
2023-02-21T06:38:06.226Z,0.90
2023-02-21T06:40:33.152Z,0.90
2023-02-21T06:43:00.168Z,0.90
2023-02-21T06:45:27.324Z,1.00
2023-02-21T06:47:54.349Z,1.00
2023-02-21T06:50:21.249Z,1.00
2023-02-21T06:52:48.438Z,1.00
2023-02-21T06:55:25.467Z,1.00
2023-02-21T06:57:52.803Z,1.10
2023-02-21T07:00:19.866Z,1.10
2023-02-21T07:02:47.086Z,1.00
2023-02-21T07:05:16.207Z,0.90
2023-02-21T07:07:43.481Z,1.00
2023-02-21T07:10:10.923Z,1.00
2023-02-21T07:12:38.214Z,1.00
2023-02-21T07:15:05.922Z,1.10
2023-02-21T07:17:32.949Z,1.10
2023-02-21T07:19:59.988Z,1.10
2023-02-21T07:22:27.095Z,1.20
2023-02-21T07:24:54.393Z,1.20
2023-02-21T07:27:21.715Z,1.20
2023-02-21T07:29:49.688Z,1.20
2023-02-21T07:32:17.604Z,1.20
2023-02-21T07:34:44.882Z,1.20
2023-02-21T07:37:12.355Z,1.10
2023-02-21T07:39:39.349Z,1.10
2023-02-21T07:42:08.258Z,1.10
2023-02-21T07:44:35.318Z,1.10
2023-02-21T07:47:02.762Z,1.20
2023-02-21T07:49:29.781Z,1.20
2023-02-21T07:51:56.776Z,1.20
2023-02-21T07:54:23.842Z,1.20
2023-02-21T07:56:50.913Z,1.20
2023-02-21T07:59:17.899Z,1.20
2023-02-21T08:01:44.976Z,1.20
2023-02-21T08:04:13.304Z,1.10
2023-02-21T08:06:40.539Z,1.20
2023-02-21T08:09:07.618Z,1.10
2023-02-21T08:11:36.768Z,1.10
2023-02-21T08:14:04.601Z,1.10
2023-02-21T08:16:34.443Z,1.10
2023-02-21T08:19:01.747Z,1.10
2023-02-21T08:21:28.654Z,1.10
2023-02-21T08:23:55.989Z,1.10
2023-02-21T08:26:23.243Z,1.10
2023-02-21T08:28:50.157Z,1.10
2023-02-21T08:31:17.608Z,1.10
2023-02-21T08:33:45.644Z,1.10
2023-02-21T08:36:12.885Z,1.10
2023-02-21T08:38:40.119Z,1.20
2023-02-21T08:41:07.114Z,1.10
2023-02-21T08:43:34.062Z,1.10
2023-02-21T08:46:01.582Z,1.10
2023-02-21T08:48:28.659Z,1.00
2023-02-21T08:50:55.715Z,1.00
2023-02-21T08:53:22.656Z,1.00
2023-02-21T08:55:49.636Z,1.00
2023-02-21T08:58:16.687Z,0.90
2023-02-21T09:00:43.623Z,0.90
2023-02-21T09:03:10.592Z,0.80
2023-02-21T09:05:37.546Z,0.90
2023-02-21T09:08:05.527Z,0.90
2023-02-21T09:10:34.233Z,0.90
2023-02-21T09:13:02.746Z,0.80
2023-02-21T09:15:29.853Z,0.90
2023-02-21T09:17:57.167Z,0.90
2023-02-21T09:20:26.261Z,0.90
2023-02-21T09:22:53.587Z,0.90
2023-02-21T09:25:24.698Z,1.00
2023-02-21T09:27:54.395Z,1.00
2023-02-21T09:30:24.692Z,1.00
2023-02-21T09:32:52.125Z,0.90
2023-02-21T09:35:19.449Z,0.90
2023-02-21T09:37:46.946Z,0.90
2023-02-21T09:40:41.472Z,0.80
2023-02-21T09:43:15.981Z,0.90
2023-02-21T09:45:44.888Z,0.90
2023-02-21T09:48:20.425Z,1.00
2023-02-21T09:50:51.518Z,1.20
2023-02-21T09:53:26.802Z,1.20
2023-02-21T09:56:00.317Z,1.20
2023-02-21T09:58:27.378Z,1.10
2023-02-21T10:01:02.167Z,1.10
2023-02-21T10:03:45.431Z,1.10
2023-02-21T10:06:18.167Z,1.00
2023-02-21T10:09:15.208Z,1.10
2023-02-21T10:12:10.496Z,1.00
2023-02-21T10:14:56.117Z,1.00
2023-02-21T10:17:44.630Z,1.00
2023-02-21T10:20:23.295Z,1.00
2023-02-21T10:22:52.108Z,1.00
2023-02-21T10:25:22.302Z,1.10
2023-02-21T10:27:51.062Z,1.00
2023-02-21T10:30:27.095Z,1.10
2023-02-21T10:32:54.176Z,1.00
2023-02-21T10:35:21.329Z,1.20
2023-02-21T10:37:52.547Z,1.20
2023-02-21T10:40:28.453Z,1.30
2023-02-21T10:43:09.409Z,1.20
2023-02-21T10:45:46.929Z,1.20
2023-02-21T10:48:15.614Z,1.20
2023-02-21T10:50:49.401Z,1.20
2023-02-21T10:53:31.587Z,1.30
2023-02-21T10:56:19.439Z,1.20
2023-02-21T10:58:56.079Z,1.20
2023-02-21T11:01:31.610Z,1.20
2023-02-21T11:04:23.106Z,1.20
2023-02-21T11:07:10.920Z,1.30
2023-02-21T11:09:45.399Z,1.30
2023-02-21T11:12:24.048Z,1.40
2023-02-21T11:14:51.250Z,1.40
2023-02-21T11:17:23.969Z,1.30
2023-02-21T11:20:07.982Z,1.30
2023-02-21T11:22:35.328Z,1.20
2023-02-21T11:25:23.720Z,1.10
2023-02-21T11:28:03.052Z,1.10
2023-02-21T11:30:35.759Z,1.10
2023-02-21T11:33:04.898Z,1.00
2023-02-21T11:35:36.419Z,1.00
2023-02-21T11:38:06.612Z,1.00
2023-02-21T11:40:41.570Z,1.10
2023-02-21T11:43:25.140Z,1.10
2023-02-21T11:46:02.667Z,1.00
2023-02-21T11:48:37.589Z,1.00
2023-02-21T11:51:14.129Z,1.00
2023-02-21T11:53:43.674Z,0.90
2023-02-21T11:56:34.333Z,1.00
2023-02-21T11:59:19.616Z,1.00
2023-02-21T12:01:54.909Z,1.00
2023-02-21T12:04:52.264Z,1.00
2023-02-21T12:07:41.840Z,1.00
2023-02-21T12:10:23.747Z,0.90
2023-02-21T12:12:59.932Z,0.90
2023-02-21T12:15:39.933Z,0.80
2023-02-21T12:18:10.274Z,0.90
2023-02-21T12:20:59.041Z,0.80
2023-02-21T12:23:49.671Z,0.90
2023-02-21T12:26:30.467Z,0.90
2023-02-21T12:29:26.041Z,0.90
2023-02-21T12:32:33.624Z,0.90
2023-02-21T12:35:22.153Z,0.90
2023-02-21T12:38:04.525Z,0.90
2023-02-21T12:40:48.440Z,0.80
2023-02-21T12:43:30.228Z,0.70
2023-02-21T12:46:19.179Z,0.70
2023-02-21T12:49:06.704Z,0.60
2023-02-21T12:51:43.605Z,0.60
2023-02-21T12:54:20.283Z,0.70
2023-02-21T12:56:58.514Z,0.70
2023-02-21T12:59:37.085Z,0.90
2023-02-21T13:02:38.310Z,0.80
2023-02-21T13:05:13.941Z,0.80
2023-02-21T13:07:43.784Z,0.70
2023-02-21T13:10:24.794Z,0.70
2023-02-21T13:13:01.310Z,0.80
2023-02-21T13:15:31.136Z,0.80
2023-02-21T13:18:16.706Z,0.70
2023-02-21T13:20:56.628Z,0.60
2023-02-21T13:23:51.447Z,0.60
2023-02-21T13:26:40.810Z,0.60
2023-02-21T13:29:25.280Z,0.50
2023-02-21T13:32:07.009Z,0.50
2023-02-21T13:34:45.538Z,0.50
2023-02-21T13:37:26.052Z,0.50
2023-02-21T13:40:01.683Z,0.50
2023-02-21T13:42:30.333Z,0.50
2023-02-21T13:45:26.017Z,0.60
2023-02-21T13:48:01.796Z,0.60
2023-02-21T13:50:38.387Z,0.60
2023-02-21T13:53:21.960Z,0.60
2023-02-21T13:56:00.924Z,0.60
2023-02-21T13:58:39.929Z,0.60
2023-02-21T14:01:27.015Z,0.60
2023-02-21T14:03:59.710Z,0.60
2023-02-21T14:06:37.680Z,0.60
2023-02-21T14:09:13.450Z,0.60
2023-02-21T14:11:48.296Z,0.50
2023-02-21T14:14:31.072Z,0.60
2023-02-21T14:17:10.736Z,0.60
2023-02-21T14:19:49.120Z,0.60
2023-02-21T14:22:25.637Z,0.60
2023-02-21T14:25:09.368Z,0.60
2023-02-21T14:27:38.782Z,0.60
2023-02-21T14:30:11.867Z,0.60
2023-02-21T14:32:43.841Z,0.50
2023-02-21T14:35:43.134Z,0.60
2023-02-21T14:38:40.856Z,0.60
2023-02-21T14:41:43.523Z,0.50
2023-02-21T14:44:35.430Z,0.50
2023-02-21T14:47:16.053Z,0.50
2023-02-21T14:50:15.284Z,0.50
2023-02-21T14:53:11.660Z,0.40
2023-02-21T14:56:19.369Z,0.40
2023-02-21T14:59:24.232Z,0.30
2023-02-21T15:02:01.901Z,0.30
2023-02-21T15:04:33.441Z,0.20
2023-02-21T15:07:06.407Z,0.20
2023-02-21T15:09:33.615Z,0.20
2023-02-21T15:12:02.635Z,0.20
2023-02-21T15:14:41.729Z,0.20
2023-02-21T15:17:16.796Z,0.20
2023-02-21T15:19:44.767Z,0.20
2023-02-21T15:22:25.137Z,0.10
2023-02-21T15:25:21.150Z,0.00
2023-02-21T15:27:51.289Z,0.10
2023-02-21T15:30:19.667Z,0.10
2023-02-21T15:32:58.334Z,0.00
2023-02-21T15:35:34.421Z,-0.10
2023-02-21T15:38:05.420Z,0.00
2023-02-21T15:40:32.504Z,-0.10
2023-02-21T15:43:01.232Z,-0.10
2023-02-21T15:45:45.128Z,-0.20
2023-02-21T15:48:12.526Z,-0.10
2023-02-21T15:50:44.098Z,-0.10
2023-02-21T15:53:20.369Z,-0.10
2023-02-21T15:55:49.424Z,0.00
2023-02-21T15:58:24.027Z,-0.10
2023-02-21T16:01:11.813Z,-0.20
2023-02-21T16:03:39.885Z,-0.20
2023-02-21T16:06:29.880Z,-0.20
2023-02-21T16:09:30.295Z,-0.30
2023-02-21T16:12:12.118Z,-0.30
2023-02-21T16:14:49.039Z,-0.30
2023-02-21T16:17:30.705Z,-0.30
2023-02-21T16:20:19.078Z,-0.20
2023-02-21T16:23:08.204Z,-0.30
2023-02-21T16:25:35.815Z,-0.30
2023-02-21T16:28:06.171Z,-0.30
2023-02-21T16:30:35.628Z,-0.20
2023-02-21T16:33:04.759Z,-0.10
2023-02-21T16:35:33.242Z,-0.30
2023-02-21T16:38:01.687Z,-0.30
2023-02-21T16:40:34.444Z,-0.40
2023-02-21T16:43:02.858Z,-0.50
2023-02-21T16:45:31.034Z,-0.50
2023-02-21T16:48:01.469Z,-0.50
2023-02-21T16:50:33.041Z,-0.50
2023-02-21T16:53:01.291Z,-0.50
2023-02-21T16:55:29.487Z,-0.50
2023-02-21T16:58:23.961Z,-0.60
2023-02-21T17:00:59.821Z,-0.50
2023-02-21T17:03:28.779Z,-0.40
2023-02-21T17:05:57.916Z,-0.60
2023-02-21T17:08:25.855Z,-0.60
2023-02-21T17:10:52.965Z,-0.70
2023-02-21T17:13:20.067Z,-0.80
2023-02-21T17:15:47.970Z,-0.80
2023-02-21T17:18:15.237Z,-0.70
2023-02-21T17:20:42.550Z,-0.70
2023-02-21T17:23:09.525Z,-0.70
2023-02-21T17:25:36.634Z,-0.80
2023-02-21T17:28:04.199Z,-0.70
2023-02-21T17:30:31.642Z,-0.80
2023-02-21T17:32:58.655Z,-0.70
2023-02-21T17:35:25.748Z,-0.70
2023-02-21T17:37:52.719Z,-0.70
2023-02-21T17:40:21.663Z,-0.70
2023-02-21T17:42:48.765Z,-0.70
2023-02-21T17:45:20.976Z,-0.80
2023-02-21T17:47:50.022Z,-0.80
2023-02-21T17:50:18.262Z,-0.80
2023-02-21T17:52:45.485Z,-0.70
2023-02-21T17:55:21.717Z,-0.70
2023-02-21T17:57:49.065Z,-0.80
2023-02-21T18:00:21.486Z,-0.80
2023-02-21T18:02:49.324Z,-0.80
2023-02-21T18:05:16.419Z,-0.80
2023-02-21T18:07:49.897Z,-0.80
2023-02-21T18:10:20.647Z,-0.80
2023-02-21T18:12:50.491Z,-0.80
2023-02-21T18:15:20.448Z,-0.90
2023-02-21T18:17:47.593Z,-0.80
2023-02-21T18:20:16.014Z,-0.80
2023-02-21T18:22:44.191Z,-0.80
2023-02-21T18:25:13.162Z,-0.90
2023-02-21T18:27:40.586Z,-0.90
2023-02-21T18:30:08.090Z,-0.90
2023-02-21T18:32:35.122Z,-0.90
2023-02-21T18:35:02.167Z,-0.90
2023-02-21T18:37:29.105Z,-0.90
2023-02-21T18:39:56.484Z,-0.90
2023-02-21T18:42:24.222Z,-0.90
2023-02-21T18:44:52.236Z,-1.00
2023-02-21T18:47:20.125Z,-1.00
2023-02-21T18:49:48.411Z,-1.10
2023-02-21T18:52:16.371Z,-1.10
2023-02-21T18:54:49.667Z,-1.10
2023-02-21T18:57:22.033Z,-1.00
2023-02-21T18:59:50.725Z,-1.00
2023-02-21T19:02:19.113Z,-1.00
2023-02-21T19:04:46.671Z,-1.00
2023-02-21T19:07:17.123Z,-0.80
2023-02-21T19:09:47.110Z,-0.80
2023-02-21T19:12:14.191Z,-0.70
2023-02-21T19:14:41.228Z,-0.70
2023-02-21T19:17:09.404Z,-0.80
2023-02-21T19:19:37.864Z,-0.80
2023-02-21T19:22:05.474Z,-0.80
2023-02-21T19:24:32.716Z,-0.80
2023-02-21T19:27:00.210Z,-0.90
2023-02-21T19:29:27.267Z,-1.00
2023-02-21T19:31:54.576Z,-0.90
2023-02-21T19:34:21.600Z,-0.90
2023-02-21T19:36:49.847Z,-1.00
2023-02-21T19:39:16.965Z,-1.00
2023-02-21T19:41:44.476Z,-0.90
2023-02-21T19:44:12.481Z,-0.90
2023-02-21T19:46:39.834Z,-1.00
2023-02-21T19:49:17.821Z,-1.00
2023-02-21T19:51:46.389Z,-1.10
2023-02-21T19:54:14.313Z,-1.20
2023-02-21T19:56:41.318Z,-1.20
2023-02-21T19:59:08.695Z,-1.10
2023-02-21T20:01:35.920Z,-1.10
2023-02-21T20:04:03.440Z,-1.10
2023-02-21T20:06:35.333Z,-1.10
2023-02-21T20:09:04.720Z,-1.10
2023-02-21T20:11:31.875Z,-1.00
2023-02-21T20:13:59.811Z,-1.10
2023-02-21T20:16:28.304Z,-1.00
2023-02-21T20:18:57.651Z,-1.10
2023-02-21T20:21:29.333Z,-1.00
2023-02-21T20:23:58.029Z,-0.90
2023-02-21T20:26:25.248Z,-1.00
2023-02-21T20:28:53.562Z,-1.00
2023-02-21T20:31:23.976Z,-1.00
2023-02-21T20:33:51.041Z,-0.90
2023-02-21T20:36:27.391Z,-1.00
2023-02-21T20:38:55.087Z,-1.00
2023-02-21T20:41:22.422Z,-1.00
2023-02-21T20:43:49.465Z,-1.00
2023-02-21T20:46:21.830Z,-0.90
2023-02-21T20:48:49.248Z,-1.00
2023-02-21T20:51:16.889Z,-1.10
2023-02-21T20:53:47.658Z,-1.00
2023-02-21T20:56:14.904Z,-1.10
2023-02-21T20:58:41.880Z,-1.10
2023-02-21T21:01:14.176Z,-1.10
2023-02-21T21:03:41.739Z,-1.10
2023-02-21T21:06:11.946Z,-1.10
2023-02-21T21:08:38.871Z,-1.10
2023-02-21T21:11:06.047Z,-1.20
2023-02-21T21:13:33.105Z,-1.20
2023-02-21T21:16:00.140Z,-1.20
2023-02-21T21:18:27.191Z,-1.20
2023-02-21T21:20:54.247Z,-1.30
2023-02-21T21:23:21.180Z,-1.30
2023-02-21T21:25:48.171Z,-1.30
2023-02-21T21:28:15.121Z,-1.40
2023-02-21T21:30:42.863Z,-1.40
2023-02-21T21:33:10.028Z,-1.30
2023-02-21T21:35:37.309Z,-1.30
2023-02-21T21:38:07.484Z,-1.30
2023-02-21T21:40:34.406Z,-1.30
2023-02-21T21:43:02.652Z,-1.30
2023-02-21T21:45:30.631Z,-1.20
2023-02-21T21:47:58.731Z,-1.20
2023-02-21T21:50:26.095Z,-1.30
2023-02-21T21:52:57.618Z,-1.40
2023-02-21T21:55:27.793Z,-1.40
2023-02-21T21:57:56.085Z,-1.30
2023-02-21T22:00:28.287Z,-1.20
2023-02-21T22:02:57.882Z,-1.30
2023-02-21T22:05:30.546Z,-1.30
2023-02-21T22:07:58.278Z,-1.40
2023-02-21T22:10:26.794Z,-1.40
2023-02-21T22:12:56.754Z,-1.40
2023-02-21T22:15:27.215Z,-1.40
2023-02-21T22:17:55.584Z,-1.30
2023-02-21T22:20:28.562Z,-1.40
2023-02-21T22:22:59.700Z,-1.40
2023-02-21T22:25:30.630Z,-1.30
2023-02-21T22:27:58.151Z,-1.30
2023-02-21T22:30:25.749Z,-1.40
2023-02-21T22:32:52.744Z,-1.50
2023-02-21T22:35:20.535Z,-1.40
2023-02-21T22:37:51.645Z,-1.40
2023-02-21T22:40:27.139Z,-1.40
2023-02-21T22:42:55.400Z,-1.40
2023-02-21T22:45:23.886Z,-1.30
2023-02-21T22:47:52.329Z,-1.50
2023-02-21T22:50:20.829Z,-1.40
2023-02-21T22:52:58.764Z,-1.40
2023-02-21T22:55:29.815Z,-1.40
2023-02-21T22:57:59.549Z,-1.40
2023-02-21T23:00:35.418Z,-1.40
2023-02-21T23:03:13.499Z,-1.30
2023-02-21T23:05:52.543Z,-1.40
2023-02-21T23:08:22.733Z,-1.40
2023-02-21T23:10:50.533Z,-1.40
2023-02-21T23:13:20.280Z,-1.30
2023-02-21T23:15:48.108Z,-1.40
2023-02-21T23:18:20.678Z,-1.40
2023-02-21T23:20:53.180Z,-1.40
2023-02-21T23:23:26.169Z,-1.50
2023-02-21T23:25:54.401Z,-1.40
2023-02-21T23:28:21.373Z,-1.50
2023-02-21T23:30:49.707Z,-1.50
2023-02-21T23:33:21.959Z,-1.50
2023-02-21T23:35:50.832Z,-1.50
2023-02-21T23:38:22.431Z,-1.30
2023-02-21T23:40:56.194Z,-1.40
2023-02-21T23:43:29.585Z,-1.40
2023-02-21T23:45:58.511Z,-1.30
2023-02-21T23:48:25.867Z,-1.30
2023-02-21T23:50:57.740Z,-1.40
2023-02-21T23:53:26.821Z,-1.40
2023-02-21T23:56:00.499Z,-1.40
2023-02-21T23:58:31.678Z,-1.40
